SD State University, South Dakota
Current Conditions -  °F | °C
As of 7:50 PM on Saturday 20 Dec 2014 (Local Time) from KMDS Reporting Station
Moderate Fog Moderate Fog  
Wind Chill: 17°   Ceiling: 200
Heat Index: 28°   Visibility: 0.25mi
Dew Point: 28°   Wind: 16mph
Humidity: 100%   Direction: 180°S
Pressure: 29.96"   Gusts: NA
Location:  44.3116°N, 96.7981°W
Report Text: KMDS 210150Z AUTO 18014KT 1/4SM FZFG OVC002 M02/M02 A2996 RMK AO2
Loading
Personal Weather Stations






























Interactive Weather Map New forecast layout! Learn more

10-Day Weather Forecast

Advertisements
Track Severe Weather on mobile